createdAt,value
2022-12-28T00:02:22.589Z,16.43
2022-12-28T00:04:51.419Z,12.43
2022-12-28T00:07:20.424Z,12.63
2022-12-28T00:09:49.348Z,18.47
2022-12-28T00:12:18.650Z,13.60
2022-12-28T00:14:47.621Z,12.90
2022-12-28T00:17:16.743Z,14.30
2022-12-28T00:19:47.453Z,14.47
2022-12-28T00:22:16.444Z,13.27
2022-12-28T00:24:45.479Z,14.07
2022-12-28T00:27:14.779Z,16.57
2022-12-28T00:29:43.781Z,12.37
2022-12-28T00:32:12.701Z,15.40
2022-12-28T00:34:41.670Z,13.47
2022-12-28T00:37:13.337Z,14.47
2022-12-28T00:39:43.478Z,14.00
2022-12-28T00:42:17.002Z,12.73
2022-12-28T00:44:46.360Z,15.90
2022-12-28T00:47:18.471Z,11.43
2022-12-28T00:49:47.471Z,13.63
2022-12-28T00:52:17.759Z,12.57
2022-12-28T00:54:46.733Z,11.30
2022-12-28T00:57:15.838Z,14.73
2022-12-28T00:59:44.826Z,12.47
2022-12-28T01:02:14.026Z,14.30
2022-12-28T01:04:43.536Z,11.93
2022-12-28T01:07:12.738Z,11.90
2022-12-28T01:09:43.659Z,13.43
2022-12-28T01:12:12.420Z,13.60
2022-12-28T01:14:41.237Z,12.17
2022-12-28T01:17:09.984Z,10.70
2022-12-28T01:19:38.747Z,12.77
2022-12-28T01:22:08.197Z,12.83
2022-12-28T01:24:36.966Z,13.43
2022-12-28T01:27:07.346Z,11.07
2022-12-28T01:29:36.105Z,11.47
2022-12-28T01:32:05.157Z,13.07
2022-12-28T01:34:34.245Z,15.93
2022-12-28T01:37:02.693Z,14.03
2022-12-28T01:39:31.685Z,11.37
2022-12-28T01:42:00.422Z,12.63
2022-12-28T01:44:52.690Z,11.10
2022-12-28T01:47:26.719Z,12.87
2022-12-28T01:50:02.643Z,14.27
2022-12-28T01:52:38.238Z,12.90
2022-12-28T01:55:13.691Z,12.60
2022-12-28T01:57:47.566Z,12.73
2022-12-28T02:00:19.448Z,19.20
2022-12-28T02:02:53.634Z,16.77
2022-12-28T02:05:30.802Z,17.13
2022-12-28T02:08:07.325Z,17.03
2022-12-28T02:10:43.092Z,20.23
2022-12-28T02:13:15.871Z,20.93
2022-12-28T02:15:46.727Z,20.43
2022-12-28T02:18:19.476Z,16.33
2022-12-28T02:21:25.123Z,15.47
2022-12-28T02:24:36.094Z,15.23
2022-12-28T02:27:16.716Z,19.30
2022-12-28T02:30:04.659Z,16.90
2022-12-28T02:32:54.286Z,16.63
2022-12-28T02:35:35.402Z,21.63
2022-12-28T02:38:12.185Z,17.47
2022-12-28T02:40:47.185Z,16.80
2022-12-28T02:43:16.206Z,16.20
2022-12-28T02:46:06.010Z,14.43
2022-12-28T02:48:59.235Z,15.93
2022-12-28T02:51:54.348Z,16.70
2022-12-28T02:55:11.506Z,15.90
2022-12-28T02:58:11.854Z,17.07
2022-12-28T03:01:03.656Z,19.27
2022-12-28T03:03:42.415Z,15.63
2022-12-28T03:06:34.969Z,19.90
2022-12-28T03:09:16.697Z,18.83
2022-12-28T03:11:55.620Z,16.03
2022-12-28T03:14:37.687Z,19.37
2022-12-28T03:17:28.533Z,14.93
2022-12-28T03:20:19.606Z,22.37
2022-12-28T03:23:09.481Z,16.33
2022-12-28T03:26:03.452Z,17.13
2022-12-28T03:28:58.925Z,14.97
2022-12-28T03:31:30.686Z,18.73
2022-12-28T03:34:08.155Z,19.53
2022-12-28T03:36:53.504Z,15.90
2022-12-28T03:39:43.638Z,18.90
2022-12-28T03:42:37.951Z,19.87
2022-12-28T03:45:46.498Z,20.40
2022-12-28T03:48:12.489Z,21.93
2022-12-28T03:50:47.086Z,20.90
2022-12-28T03:53:19.139Z,24.50
2022-12-28T03:55:48.351Z,20.60
2022-12-28T03:58:23.515Z,24.60
2022-12-28T04:00:52.367Z,19.33
2022-12-28T04:03:23.327Z,22.40
2022-12-28T04:05:54.202Z,20.60
2022-12-28T04:08:23.224Z,22.53
2022-12-28T04:10:52.123Z,21.90
2022-12-28T04:13:21.120Z,19.07
2022-12-28T04:16:03.047Z,22.23
2022-12-28T04:18:34.028Z,18.83
2022-12-28T04:21:05.025Z,18.47
2022-12-28T04:23:34.524Z,19.73
2022-12-28T04:26:26.765Z,19.00
2022-12-28T04:29:00.756Z,20.20
2022-12-28T04:31:49.198Z,20.30
2022-12-28T04:34:21.287Z,17.83
2022-12-28T04:37:10.787Z,19.10
2022-12-28T04:39:56.334Z,21.40
2022-12-28T04:42:26.274Z,16.27
2022-12-28T04:44:54.968Z,20.67
2022-12-28T04:47:24.050Z,21.63
2022-12-28T04:49:53.170Z,20.37
2022-12-28T04:52:23.306Z,18.23
2022-12-28T04:54:52.368Z,17.70
2022-12-28T04:57:21.198Z,20.93
2022-12-28T04:59:49.935Z,21.33
2022-12-28T05:02:18.836Z,21.53
2022-12-28T05:04:47.960Z,17.80
2022-12-28T05:07:16.674Z,18.67
2022-12-28T05:09:46.816Z,20.87
2022-12-28T05:12:15.557Z,21.70
2022-12-28T05:14:44.835Z,22.63
2022-12-28T05:17:13.720Z,21.20
2022-12-28T05:19:42.458Z,21.37
2022-12-28T05:22:12.186Z,20.43
2022-12-28T05:24:41.072Z,19.80
2022-12-28T05:27:11.235Z,22.60
2022-12-28T05:29:41.720Z,23.60
2022-12-28T05:32:11.287Z,24.63
2022-12-28T05:34:42.133Z,21.97
2022-12-28T05:37:14.368Z,22.17
2022-12-28T05:39:45.712Z,21.13
2022-12-28T05:42:16.301Z,21.60
2022-12-28T05:44:45.076Z,19.60
2022-12-28T05:47:13.930Z,22.70
2022-12-28T05:49:42.946Z,22.33
2022-12-28T05:52:11.745Z,23.43
2022-12-28T05:54:42.119Z,19.67
2022-12-28T05:57:15.097Z,21.33
2022-12-28T05:59:43.952Z,21.80
2022-12-28T06:11:31.581Z,18.13
2022-12-28T06:14:11.573Z,20.67
2022-12-28T06:17:01.983Z,20.23
2022-12-28T06:19:56.095Z,18.93
2022-12-28T06:22:36.711Z,22.17
2022-12-28T06:25:05.442Z,20.13
2022-12-28T06:27:33.990Z,16.43
2022-12-28T06:30:04.283Z,23.87
2022-12-28T06:32:32.674Z,20.17
2022-12-28T06:35:02.589Z,18.90
2022-12-28T06:37:31.182Z,19.47
2022-12-28T06:39:59.765Z,22.93
2022-12-28T06:42:28.395Z,22.20
2022-12-28T06:44:56.657Z,23.00
2022-12-28T06:47:26.287Z,24.73
2022-12-28T06:49:55.889Z,24.93
2022-12-28T06:52:24.497Z,21.60
2022-12-28T06:54:52.857Z,21.03
2022-12-28T06:57:21.439Z,22.73
2022-12-28T06:59:50.047Z,21.90
2022-12-28T07:02:19.742Z,24.03
2022-12-28T07:04:49.580Z,18.97
2022-12-28T07:07:18.559Z,21.70
2022-12-28T07:09:46.798Z,19.20
2022-12-28T07:12:15.378Z,23.97
2022-12-28T07:14:43.936Z,17.83
2022-12-28T07:17:12.484Z,19.77
2022-12-28T07:19:41.055Z,18.70
2022-12-28T07:22:10.661Z,19.53
2022-12-28T07:24:39.399Z,20.10
2022-12-28T07:27:07.624Z,21.77
2022-12-28T07:29:36.212Z,21.63
2022-12-28T07:32:05.540Z,22.50
2022-12-28T07:34:34.073Z,20.53
2022-12-28T07:37:02.312Z,20.83
2022-12-28T07:39:31.901Z,21.50
2022-12-28T07:42:00.129Z,21.60
2022-12-28T07:44:29.916Z,21.73
2022-12-28T07:47:00.004Z,18.50
2022-12-28T07:49:28.657Z,18.33
2022-12-28T07:51:57.153Z,17.50
2022-12-28T07:54:25.594Z,16.67
2022-12-28T07:56:55.217Z,18.63
2022-12-28T07:59:30.611Z,19.43
2022-12-28T08:02:00.163Z,17.83
2022-12-28T08:04:29.144Z,19.80
2022-12-28T08:06:57.346Z,17.07
2022-12-28T08:09:25.892Z,20.40
2022-12-28T08:11:55.468Z,19.47
2022-12-28T08:14:24.434Z,19.50
2022-12-28T08:16:52.689Z,22.17
2022-12-28T08:19:20.922Z,22.27
2022-12-28T08:21:58.119Z,19.07
2022-12-28T08:24:26.778Z,19.87
2022-12-28T08:26:56.335Z,21.20
2022-12-28T08:29:24.991Z,18.37
2022-12-28T08:32:00.765Z,17.73
2022-12-28T08:34:28.972Z,20.93
2022-12-28T08:36:57.922Z,20.73
2022-12-28T08:39:26.177Z,21.30
2022-12-28T08:41:55.778Z,19.60
2022-12-28T08:44:24.034Z,19.17
2022-12-28T08:46:52.763Z,22.57
2022-12-28T08:49:21.339Z,20.33
2022-12-28T08:51:49.990Z,22.53
2022-12-28T08:54:18.181Z,21.60
2022-12-28T08:56:47.476Z,21.27
2022-12-28T08:59:19.599Z,18.10
2022-12-28T09:01:48.709Z,19.77
2022-12-28T09:04:23.158Z,19.73
2022-12-28T09:06:52.003Z,18.47
2022-12-28T09:09:22.015Z,17.63
2022-12-28T09:11:51.473Z,16.53
2022-12-28T09:14:24.114Z,16.90
2022-12-28T09:16:54.095Z,16.70
2022-12-28T09:19:23.385Z,17.53
2022-12-28T09:21:53.820Z,18.40
2022-12-28T09:24:25.538Z,16.30
2022-12-28T09:26:55.423Z,18.10
2022-12-28T09:29:25.058Z,17.07
2022-12-28T09:31:53.340Z,14.93
2022-12-28T09:34:38.274Z,14.23
2022-12-28T09:37:08.552Z,14.13
2022-12-28T09:39:37.324Z,12.60
2022-12-28T09:42:16.431Z,13.93
2022-12-28T09:44:56.505Z,14.27
2022-12-28T09:47:36.251Z,13.00
2022-12-28T09:50:28.552Z,13.97
2022-12-28T09:53:20.686Z,13.67
2022-12-28T09:56:01.065Z,12.47
2022-12-28T09:58:33.143Z,15.00
2022-12-28T10:01:05.581Z,11.37
2022-12-28T10:03:40.104Z,15.90
2022-12-28T10:06:15.067Z,11.70
2022-12-28T10:08:48.500Z,18.60
2022-12-28T10:11:22.102Z,14.03
2022-12-28T10:13:58.258Z,13.30
2022-12-28T10:16:32.915Z,12.97
2022-12-28T10:19:01.952Z,10.60
2022-12-28T10:21:34.469Z,12.30
2022-12-28T10:26:58.457Z,11.80
2022-12-28T10:29:27.955Z,11.03
2022-12-28T10:32:03.787Z,10.40
2022-12-28T10:34:35.548Z,10.97
2022-12-28T10:37:15.519Z,19.00
2022-12-28T10:39:51.159Z,11.23
2022-12-28T10:42:28.529Z,10.97
2022-12-28T10:45:04.315Z,9.73
2022-12-28T10:47:42.361Z,8.60
2022-12-28T10:50:40.659Z,11.67
2022-12-28T10:53:20.055Z,12.33
2022-12-28T10:55:48.628Z,8.97
2022-12-28T10:58:31.673Z,10.43
2022-12-28T11:01:06.740Z,13.53
2022-12-28T11:03:40.363Z,9.60
2022-12-28T11:06:18.664Z,8.70
2022-12-28T11:09:06.774Z,10.60
2022-12-28T11:11:38.178Z,12.33
2022-12-28T11:14:16.888Z,11.40
2022-12-28T11:16:48.900Z,14.13
2022-12-28T11:19:23.720Z,12.43
2022-12-28T11:21:55.209Z,10.03
2022-12-28T11:24:28.684Z,9.30
2022-12-28T11:26:58.543Z,7.63
2022-12-28T11:29:26.792Z,7.33
2022-12-28T11:32:01.918Z,7.53
2022-12-28T11:34:33.469Z,9.63
2022-12-28T11:37:02.197Z,6.93
2022-12-28T11:39:44.854Z,8.63
2022-12-28T11:42:51.549Z,7.27
2022-12-28T11:45:53.436Z,5.77
2022-12-28T11:48:48.792Z,6.97
2022-12-28T11:51:20.980Z,5.67
2022-12-28T11:54:00.026Z,6.60
2022-12-28T11:57:00.052Z,5.67
2022-12-28T11:59:31.039Z,6.13
2022-12-28T12:02:01.796Z,4.87
2022-12-28T12:04:37.748Z,4.57
2022-12-28T12:07:26.013Z,7.33
2022-12-28T12:10:35.481Z,5.87
2022-12-28T12:13:39.693Z,5.10
2022-12-28T12:16:23.609Z,7.73
2022-12-28T12:18:56.242Z,5.73
2022-12-28T12:21:37.042Z,4.57
2022-12-28T12:24:19.978Z,6.60
2022-12-28T12:26:54.533Z,7.40
2022-12-28T12:29:31.438Z,6.43
2022-12-28T12:32:06.369Z,7.03
2022-12-28T12:34:45.727Z,8.83
2022-12-28T12:37:38.943Z,5.63
2022-12-28T12:40:45.678Z,6.53
2022-12-28T12:43:36.363Z,5.73
2022-12-28T12:46:47.664Z,9.30
2022-12-28T12:49:48.039Z,4.47
2022-12-28T12:52:31.392Z,5.07
2022-12-28T12:55:19.520Z,5.37
2022-12-28T12:57:59.120Z,5.97
2022-12-28T13:00:48.382Z,8.87
2022-12-28T13:03:30.382Z,5.70
2022-12-28T13:06:00.292Z,6.40
2022-12-28T13:08:37.265Z,8.33
2022-12-28T13:11:10.816Z,5.87
2022-12-28T13:13:42.285Z,8.97
2022-12-28T13:16:13.599Z,10.17
2022-12-28T13:18:45.050Z,7.20
2022-12-28T13:21:22.073Z,7.43
2022-12-28T13:23:51.859Z,7.47
2022-12-28T13:26:29.059Z,6.57
2022-12-28T13:29:00.452Z,5.10
2022-12-28T13:31:35.790Z,5.83
2022-12-28T13:34:15.990Z,5.63
2022-12-28T13:36:50.207Z,6.80
2022-12-28T13:39:21.595Z,7.37
2022-12-28T13:41:54.996Z,6.60
2022-12-28T13:44:32.746Z,6.80
2022-12-28T13:47:12.348Z,5.47
2022-12-28T13:49:47.370Z,5.83
2022-12-28T13:52:22.021Z,6.20
2022-12-28T13:54:56.177Z,5.83
2022-12-28T13:57:50.058Z,4.83
2022-12-28T14:00:21.325Z,7.60
2022-12-28T14:02:54.259Z,5.37
2022-12-28T14:05:27.318Z,7.10
2022-12-28T14:07:58.566Z,7.93
2022-12-28T14:10:28.306Z,10.00
2022-12-28T14:12:59.796Z,9.53
2022-12-28T14:15:28.725Z,8.73
2022-12-28T14:17:57.779Z,10.20
2022-12-28T14:20:26.496Z,20.30
2022-12-28T14:22:55.138Z,13.00
2022-12-28T14:25:24.916Z,15.70
2022-12-28T14:28:03.745Z,19.30
2022-12-28T14:30:37.797Z,15.97
2022-12-28T14:33:20.840Z,9.97
2022-12-28T14:35:55.018Z,7.10
2022-12-28T14:38:29.607Z,8.83
2022-12-28T14:41:00.462Z,11.53
2022-12-28T14:43:33.587Z,13.13
2022-12-28T14:46:18.679Z,12.00
2022-12-28T14:48:47.281Z,10.83
2022-12-28T14:51:29.205Z,11.57
2022-12-28T14:54:22.840Z,14.27
2022-12-28T14:56:57.151Z,8.73
2022-12-28T14:59:33.628Z,10.50
2022-12-28T15:02:02.069Z,9.90
2022-12-28T15:04:38.306Z,10.30
2022-12-28T15:07:09.329Z,9.67
2022-12-28T15:09:37.658Z,9.57
2022-12-28T15:12:15.797Z,9.37
2022-12-28T15:14:48.604Z,6.87
2022-12-28T15:17:17.736Z,10.40
2022-12-28T15:19:46.867Z,12.80
2022-12-28T15:22:15.277Z,13.07
2022-12-28T15:24:45.329Z,9.87
2022-12-28T15:27:14.210Z,8.57
2022-12-28T15:32:32.194Z,9.23
2022-12-28T15:35:00.463Z,7.93
2022-12-28T15:37:29.181Z,8.50
2022-12-28T15:39:57.553Z,7.43
2022-12-28T15:42:26.401Z,8.57
2022-12-28T15:44:55.035Z,9.03
2022-12-28T15:47:24.173Z,6.77
2022-12-28T15:49:53.982Z,7.83
2022-12-28T15:52:22.608Z,8.07
2022-12-28T15:54:51.258Z,6.87
2022-12-28T15:57:20.237Z,8.67
2022-12-28T15:59:48.829Z,5.43
2022-12-28T16:02:17.600Z,5.63
2022-12-28T16:04:46.497Z,6.20
2022-12-28T16:07:19.276Z,6.53
2022-12-28T16:09:47.715Z,6.50
2022-12-28T16:12:17.687Z,6.20
2022-12-28T16:14:47.788Z,6.20
2022-12-28T16:17:16.497Z,6.87
2022-12-28T16:19:45.409Z,4.90
2022-12-28T16:22:15.126Z,6.47
2022-12-28T16:24:43.836Z,7.23
2022-12-28T16:27:12.488Z,8.87
2022-12-28T16:29:40.726Z,6.20
2022-12-28T16:32:09.542Z,5.17
2022-12-28T16:34:37.934Z,5.70
2022-12-28T16:37:06.580Z,8.53
2022-12-28T16:39:37.911Z,6.63
2022-12-28T16:42:08.533Z,7.40
2022-12-28T16:44:37.289Z,7.57
2022-12-28T16:47:06.637Z,6.77
2022-12-28T16:49:39.707Z,7.07
2022-12-28T16:52:08.402Z,5.97
2022-12-28T16:54:38.441Z,7.37
2022-12-28T16:57:07.003Z,8.40
2022-12-28T16:59:35.670Z,7.47
2022-12-28T17:02:05.572Z,7.53
2022-12-28T17:04:34.322Z,8.47
2022-12-28T17:07:02.630Z,9.70
2022-12-28T17:09:31.246Z,12.10
2022-12-28T17:12:01.585Z,12.80
2022-12-28T17:14:37.491Z,11.77
2022-12-28T17:17:07.167Z,12.03
2022-12-28T17:19:36.147Z,13.33
2022-12-28T17:22:05.195Z,10.27
2022-12-28T17:24:33.609Z,12.57
2022-12-28T17:27:08.172Z,9.90
2022-12-28T17:29:39.134Z,13.00
2022-12-28T17:32:08.643Z,10.10
2022-12-28T17:34:37.484Z,12.53
2022-12-28T17:37:06.415Z,12.17
2022-12-28T17:39:40.306Z,8.77
2022-12-28T17:42:10.626Z,9.73
2022-12-28T17:44:39.169Z,10.63
2022-12-28T17:47:08.007Z,9.33
2022-12-28T17:49:36.319Z,13.33
2022-12-28T17:52:05.247Z,10.53
2022-12-28T17:54:33.915Z,11.80
2022-12-28T17:57:02.249Z,10.47
2022-12-28T17:59:32.260Z,15.23
2022-12-28T18:02:01.785Z,9.57
2022-12-28T18:04:30.939Z,8.10
2022-12-28T18:06:59.576Z,9.03
2022-12-28T18:09:28.401Z,15.30
2022-12-28T18:11:57.090Z,14.13
2022-12-28T18:14:25.852Z,11.17
2022-12-28T18:16:56.484Z,10.87
2022-12-28T18:19:25.189Z,11.20
2022-12-28T18:21:53.827Z,10.10
2022-12-28T18:24:22.427Z,8.03
2022-12-28T18:26:51.063Z,6.30
2022-12-28T18:29:19.700Z,7.53
2022-12-28T18:31:48.341Z,8.13
2022-12-28T18:34:18.496Z,8.10
2022-12-28T18:36:46.816Z,7.93
2022-12-28T18:39:15.122Z,8.43
2022-12-28T18:41:43.430Z,8.67
2022-12-28T18:44:12.060Z,8.90
2022-12-28T18:46:40.915Z,8.03
2022-12-28T18:49:09.559Z,6.43
2022-12-28T18:51:39.206Z,8.30
2022-12-28T18:54:07.468Z,10.00
2022-12-28T18:56:36.057Z,14.00
2022-12-28T18:59:04.730Z,9.27
2022-12-28T19:02:05.121Z,7.53
2022-12-28T19:04:21.939Z,6.40
2022-12-28T19:06:52.041Z,8.43
2022-12-28T19:09:20.327Z,7.97
2022-12-28T19:11:48.908Z,9.43
2022-12-28T19:14:18.747Z,6.83
2022-12-28T19:16:47.365Z,5.83
2022-12-28T19:19:17.255Z,6.87
2022-12-28T19:21:46.134Z,6.10
2022-12-28T19:24:19.784Z,7.27
2022-12-28T19:26:48.403Z,9.40
2022-12-28T19:29:17.282Z,6.07
2022-12-28T19:31:46.025Z,12.67
2022-12-28T19:34:15.769Z,8.23
2022-12-28T19:36:44.384Z,9.07
2022-12-28T19:39:13.035Z,8.07
2022-12-28T19:41:42.814Z,8.23
2022-12-28T19:44:11.596Z,7.73
2022-12-28T19:46:40.316Z,10.70
2022-12-28T19:49:08.738Z,5.53
2022-12-28T19:51:36.969Z,5.70
2022-12-28T19:54:05.867Z,5.63
2022-12-28T19:56:34.855Z,5.10
2022-12-28T19:59:06.869Z,5.27
2022-12-28T20:01:38.972Z,6.27
2022-12-28T20:04:13.498Z,4.17
2022-12-28T20:06:44.757Z,4.47
2022-12-28T20:09:14.838Z,5.97
2022-12-28T20:11:44.729Z,4.80
2022-12-28T20:14:23.152Z,6.17
2022-12-28T20:16:53.085Z,3.30
2022-12-28T20:19:21.768Z,3.90
2022-12-28T20:21:50.462Z,5.10
2022-12-28T20:24:21.533Z,4.63
2022-12-28T20:26:50.052Z,4.50
2022-12-28T20:29:19.754Z,5.60
2022-12-28T20:31:50.617Z,4.63
2022-12-28T20:34:18.971Z,5.03
2022-12-28T20:36:47.859Z,6.43
2022-12-28T20:39:16.155Z,8.00
2022-12-28T20:42:02.532Z,5.77
2022-12-28T20:44:34.265Z,4.83
2022-12-28T20:47:03.348Z,6.43
2022-12-28T20:49:32.463Z,5.50
2022-12-28T20:52:00.768Z,6.57
2022-12-28T20:54:29.157Z,5.73
2022-12-28T20:56:57.788Z,5.43
2022-12-28T20:59:26.617Z,6.30
2022-12-28T21:01:56.317Z,7.20
2022-12-28T21:04:25.992Z,5.37
2022-12-28T21:06:55.210Z,6.13
2022-12-28T21:09:23.921Z,6.83
2022-12-28T21:11:52.667Z,6.30
2022-12-28T21:14:21.183Z,7.97
2022-12-28T21:16:49.814Z,6.70
2022-12-28T21:19:19.549Z,8.13
2022-12-28T21:21:49.500Z,10.73
2022-12-28T21:24:17.755Z,6.50
2022-12-28T21:26:46.381Z,6.83
2022-12-28T21:29:17.761Z,7.20
2022-12-28T21:31:49.175Z,6.23
2022-12-28T21:34:18.942Z,7.83
2022-12-28T21:36:47.523Z,9.20
2022-12-28T21:39:15.894Z,5.37
2022-12-28T21:41:50.135Z,7.60
2022-12-28T21:44:21.093Z,8.97
2022-12-28T21:46:51.824Z,10.83
2022-12-28T21:49:22.268Z,7.03
2022-12-28T21:51:51.534Z,6.67
2022-12-28T21:54:22.554Z,5.97
2022-12-28T21:56:53.757Z,5.83
2022-12-28T21:59:23.572Z,6.23
2022-12-28T22:02:10.660Z,6.17
2022-12-28T22:07:42.857Z,6.10
2022-12-28T22:10:29.295Z,7.33
2022-12-28T22:12:57.598Z,8.73
2022-12-28T22:15:45.334Z,7.10
2022-12-28T22:18:52.651Z,7.60
2022-12-28T22:21:11.242Z,8.33
2022-12-28T22:23:39.476Z,8.03
2022-12-28T22:26:08.213Z,7.30
2022-12-28T22:28:36.541Z,7.50
2022-12-28T22:31:06.566Z,7.50
2022-12-28T22:33:35.901Z,10.57
2022-12-28T22:36:14.843Z,8.97
2022-12-28T22:38:43.093Z,8.00
2022-12-28T22:41:12.110Z,7.20
2022-12-28T22:43:40.746Z,8.83
2022-12-28T22:46:11.600Z,6.30
2022-12-28T22:48:40.455Z,6.57
2022-12-28T22:51:10.971Z,9.13
2022-12-28T22:53:41.449Z,7.20
2022-12-28T22:56:15.812Z,6.97
2022-12-28T22:58:44.404Z,6.60
2022-12-28T23:01:18.347Z,7.60
2022-12-28T23:03:48.656Z,8.37
2022-12-28T23:06:19.481Z,7.40
2022-12-28T23:08:49.577Z,7.83
2022-12-28T23:11:37.779Z,6.03
2022-12-28T23:14:27.274Z,7.13
2022-12-28T23:16:55.921Z,6.17
2022-12-28T23:19:42.057Z,5.83
2022-12-28T23:22:33.854Z,6.43
2022-12-28T23:25:21.407Z,6.17
2022-12-28T23:27:49.769Z,7.20
2022-12-28T23:30:22.460Z,6.93
2022-12-28T23:32:53.333Z,8.23
2022-12-28T23:38:03.610Z,6.23
2022-12-28T23:40:33.360Z,6.30
2022-12-28T23:43:01.822Z,8.00
2022-12-28T23:48:41.765Z,5.30
2022-12-28T23:51:11.147Z,5.90
2022-12-28T23:53:41.137Z,7.40
2022-12-28T23:56:11.924Z,9.50
2022-12-28T23:58:40.834Z,6.30
